createdAt,value
2023-04-23T00:04:51.750Z,101143.56
2023-04-23T00:09:44.880Z,101239.72
2023-04-23T00:14:39.944Z,101204.78
2023-04-23T00:19:33.365Z,101235.91
2023-04-23T00:24:26.604Z,101232.56
2023-04-23T00:29:19.792Z,101200.41
2023-04-23T00:34:14.344Z,101233.47
2023-04-23T00:39:07.586Z,101179.38
2023-04-23T00:44:01.865Z,101233.47
2023-04-23T00:48:56.123Z,101157.94
2023-04-23T00:53:50.614Z,101223.66
2023-04-23T00:58:43.995Z,101236.25
2023-04-23T01:03:38.761Z,101234.16
2023-04-23T01:08:33.709Z,101209.66
2023-04-23T01:13:29.910Z,101232.16
2023-04-23T01:18:24.432Z,101229.59
2023-04-23T01:23:19.097Z,101229.53
2023-04-23T01:28:13.154Z,101238.03
2023-04-23T01:33:07.426Z,101234.03
2023-04-23T01:38:03.963Z,101221.13
2023-04-23T01:42:59.425Z,101166.50
2023-04-23T01:47:52.964Z,101014.47
2023-04-23T01:52:46.522Z,101165.53
2023-04-23T01:57:39.781Z,101222.16
2023-04-23T02:02:34.470Z,101159.63
2023-04-23T02:07:27.740Z,101231.91
2023-04-23T02:12:21.111Z,101174.69
2023-04-23T02:17:14.392Z,101222.78
2023-04-23T02:22:09.512Z,101193.72
2023-04-23T02:27:03.610Z,101219.88
2023-04-23T02:31:56.925Z,101228.28
2023-04-23T02:36:50.213Z,101252.78
2023-04-23T02:41:44.857Z,101254.56
2023-04-23T02:46:38.556Z,101255.38
2023-04-23T02:51:32.247Z,101255.16
2023-04-23T02:56:25.948Z,101212.78
2023-04-23T03:01:21.383Z,101229.25
2023-04-23T03:06:14.787Z,101251.75
2023-04-23T03:11:07.974Z,101266.47
2023-04-23T03:16:01.274Z,101231.47
2023-04-23T03:20:56.521Z,101250.59
2023-04-23T03:25:50.028Z,101247.00
2023-04-23T03:30:43.452Z,101102.97
2023-04-23T03:35:36.825Z,101279.28
2023-04-23T03:40:36.002Z,101205.50
2023-04-23T03:45:32.278Z,101221.25
2023-04-23T03:50:26.286Z,101289.69
2023-04-23T03:55:33.518Z,101295.59
2023-04-23T04:00:28.536Z,101304.97
2023-04-23T04:05:21.883Z,101275.22
2023-04-23T04:10:15.199Z,101266.38
2023-04-23T04:15:10.420Z,101292.84
2023-04-23T04:20:05.336Z,101261.75
2023-04-23T04:24:59.364Z,101292.56
2023-04-23T04:29:53.028Z,101281.56
2023-04-23T04:34:47.137Z,101255.19
2023-04-23T04:39:41.946Z,101301.00
2023-04-23T04:44:37.584Z,101332.03
2023-04-23T04:49:31.186Z,101282.38
2023-04-23T04:54:24.366Z,101335.75
2023-04-23T04:59:19.156Z,101169.44
2023-04-23T05:04:12.798Z,101210.47
2023-04-23T05:09:06.419Z,101303.53
2023-04-23T05:13:59.925Z,101334.25
2023-04-23T05:18:54.626Z,101320.53
2023-04-23T05:23:48.650Z,101106.88
2023-04-23T05:28:42.238Z,101291.38
2023-04-23T05:33:46.358Z,101331.84
2023-04-23T05:38:45.760Z,101339.28
2023-04-23T05:43:39.061Z,101329.19
2023-04-23T05:48:32.440Z,101349.16
2023-04-23T05:53:26.980Z,101318.97
2023-04-23T05:58:22.659Z,101310.97
2023-04-23T06:03:16.838Z,101320.75
2023-04-23T06:08:10.474Z,101304.25
2023-04-23T06:13:03.916Z,101316.94
2023-04-23T06:18:00.989Z,101319.63
2023-04-23T06:22:54.472Z,101252.13
2023-04-23T06:27:49.547Z,101324.28
2023-04-23T06:32:47.772Z,101319.38
2023-04-23T06:37:42.239Z,101337.38
2023-04-23T06:42:35.476Z,101335.28
2023-04-23T06:47:49.278Z,101319.66
2023-04-23T06:52:44.385Z,101330.72
2023-04-23T06:57:39.448Z,101328.34
2023-04-23T07:02:33.028Z,101329.53
2023-04-23T07:07:26.387Z,101331.72
2023-04-23T07:12:21.391Z,101271.22
2023-04-23T07:17:15.540Z,101323.34
2023-04-23T07:22:08.684Z,101305.94
2023-04-23T07:27:02.184Z,101326.78
2023-04-23T07:31:56.812Z,101323.03
2023-04-23T07:36:50.220Z,101294.19
2023-04-23T07:41:43.566Z,101317.75
2023-04-23T07:46:36.803Z,101315.69
2023-04-23T07:51:31.965Z,101242.28
2023-04-23T07:56:25.802Z,101317.59
2023-04-23T08:01:21.860Z,101306.50
2023-04-23T08:06:15.172Z,101188.84
2023-04-23T08:11:11.164Z,101305.25
2023-04-23T08:16:04.402Z,101306.19
2023-04-23T08:20:57.699Z,101297.34
2023-04-23T08:25:50.916Z,101219.34
2023-04-23T08:30:45.586Z,101298.34
2023-04-23T08:35:38.866Z,101267.94
2023-04-23T08:40:34.220Z,101275.56
2023-04-23T08:45:27.385Z,101288.19
2023-04-23T08:50:22.004Z,101254.41
2023-04-23T08:55:16.124Z,101279.66
2023-04-23T09:00:11.767Z,101268.09
2023-04-23T09:05:16.614Z,101275.09
2023-04-23T09:10:15.460Z,101270.06
2023-04-23T09:15:12.883Z,101240.00
2023-04-23T09:20:11.000Z,101255.34
2023-04-23T09:25:05.731Z,101233.06
2023-04-23T09:30:05.283Z,101220.22
2023-04-23T09:34:58.627Z,101249.31
2023-04-23T09:39:54.762Z,101250.28
2023-04-23T09:44:59.733Z,101248.47
2023-04-23T09:49:53.174Z,101243.84
2023-04-23T09:54:47.542Z,101195.84
2023-04-23T10:04:41.995Z,101193.94
2023-04-23T10:09:36.178Z,101230.72
2023-04-23T10:14:30.960Z,101178.47
2023-04-23T10:19:25.944Z,101191.78
2023-04-23T10:24:22.171Z,101191.81
2023-04-23T10:29:17.421Z,101208.03
2023-04-23T10:34:12.113Z,101164.69
2023-04-23T10:39:09.388Z,101197.91
2023-04-23T10:44:05.050Z,101158.13
2023-04-23T10:49:08.077Z,101189.38
2023-04-23T10:54:01.347Z,101182.53
2023-04-23T10:58:54.629Z,101041.91
2023-04-23T11:03:49.354Z,101116.13
2023-04-23T11:08:54.221Z,101154.31
2023-04-23T11:13:55.209Z,101134.34
2023-04-23T11:19:03.886Z,101137.78
2023-04-23T11:23:59.116Z,101137.34
2023-04-23T11:28:54.973Z,101132.59
2023-04-23T11:33:48.176Z,101148.13
2023-04-23T11:38:48.978Z,101146.69
2023-04-23T11:43:43.780Z,101146.34
2023-04-23T11:48:37.611Z,101135.63
2023-04-23T11:53:30.682Z,101130.00
2023-04-23T11:58:25.386Z,101133.09
2023-04-23T12:03:18.665Z,101083.53
2023-04-23T12:08:13.267Z,101111.03
2023-04-23T12:13:06.507Z,101099.19
2023-04-23T12:18:11.948Z,101088.59
2023-04-23T12:23:06.609Z,101088.38
2023-04-23T12:28:01.183Z,101078.25
2023-04-23T12:33:01.394Z,101057.94
2023-04-23T12:37:56.134Z,101083.03
2023-04-23T12:42:51.461Z,101041.34
2023-04-23T12:47:44.739Z,101067.59
2023-04-23T12:52:40.611Z,101000.81
2023-04-23T12:57:35.088Z,101063.28
2023-04-23T13:02:28.351Z,101017.66
2023-04-23T13:07:21.890Z,101022.53
2023-04-23T13:12:15.024Z,100964.41
2023-04-23T13:17:12.268Z,101044.09
2023-04-23T13:22:07.620Z,101040.88
2023-04-23T13:27:03.639Z,101031.94
2023-04-23T13:31:57.389Z,101014.59
2023-04-23T13:36:52.540Z,101031.13
2023-04-23T13:41:49.482Z,100853.97
2023-04-23T13:46:47.734Z,101020.34
2023-04-23T13:51:45.051Z,100976.09
2023-04-23T13:56:39.746Z,101024.25
2023-04-23T14:01:33.373Z,100952.63
2023-04-23T14:06:28.994Z,101001.91
2023-04-23T14:11:24.638Z,100986.25
2023-04-23T14:16:19.494Z,101011.03
2023-04-23T14:21:14.934Z,101013.78
2023-04-23T14:26:17.584Z,101018.91
2023-04-23T14:31:10.827Z,100986.66
2023-04-23T14:36:07.754Z,100998.09
2023-04-23T14:41:01.597Z,100971.38
2023-04-23T14:45:54.715Z,100996.94
2023-04-23T14:50:48.106Z,100967.28
2023-04-23T14:55:43.483Z,101000.16
2023-04-23T15:00:36.866Z,100963.72
2023-04-23T15:05:30.288Z,100971.13
2023-04-23T15:10:23.644Z,100989.88
2023-04-23T15:15:41.177Z,100980.78
2023-04-23T15:20:39.295Z,100946.56
2023-04-23T15:25:33.306Z,100968.00
2023-04-23T15:30:28.525Z,100991.94
2023-04-23T15:35:21.633Z,100984.50
2023-04-23T15:40:14.861Z,100985.91
2023-04-23T15:45:10.253Z,100986.66
2023-04-23T15:50:05.426Z,100981.72
2023-04-23T15:54:59.655Z,100983.41
2023-04-23T15:59:56.746Z,100927.09
2023-04-23T16:04:50.990Z,100954.09
2023-04-23T16:09:45.666Z,100909.38
2023-04-23T16:14:38.919Z,100981.59
2023-04-23T16:19:32.076Z,100881.53
2023-04-23T16:24:26.618Z,100976.41
2023-04-23T16:29:22.483Z,100981.31
2023-04-23T16:34:19.208Z,100955.59
2023-04-23T16:39:12.440Z,100976.78
2023-04-23T16:44:05.626Z,100971.09
2023-04-23T16:49:00.366Z,100988.72
2023-04-23T16:53:53.844Z,100908.75
2023-04-23T16:58:47.436Z,100943.78
2023-04-23T17:03:41.147Z,100999.97
2023-04-23T17:08:38.512Z,100992.25
2023-04-23T17:13:35.368Z,100889.03
2023-04-23T17:18:28.528Z,100969.00
2023-04-23T17:23:21.734Z,100960.16
2023-04-23T17:28:18.440Z,100990.56
2023-04-23T17:33:17.100Z,100979.44
2023-04-23T17:38:11.262Z,100995.84
2023-04-23T17:43:07.119Z,101015.84
2023-04-23T17:48:03.177Z,101003.81
2023-04-23T17:52:58.122Z,101004.72
2023-04-23T17:57:52.026Z,100975.66
2023-04-23T18:02:45.381Z,101037.34
2023-04-23T18:07:41.173Z,101044.41
2023-04-23T18:12:35.765Z,101035.56
2023-04-23T18:17:29.168Z,101022.00
2023-04-23T18:22:22.945Z,101045.03
2023-04-23T18:27:20.620Z,101045.19
2023-04-23T18:32:20.916Z,101043.53
2023-04-23T18:37:37.952Z,100929.34
2023-04-23T18:42:32.652Z,101043.66
2023-04-23T18:47:32.260Z,100882.66
2023-04-23T18:52:25.493Z,101050.88
2023-04-23T18:57:18.801Z,101039.19
2023-04-23T19:02:21.389Z,101026.69
2023-04-23T19:07:18.147Z,100974.41
2023-04-23T19:12:17.243Z,100976.16
2023-04-23T19:17:13.061Z,101049.63
2023-04-23T19:22:07.616Z,101046.94
2023-04-23T19:27:01.218Z,100955.22
2023-04-23T19:31:55.191Z,101011.84
2023-04-23T19:36:48.626Z,100983.06
2023-04-23T19:41:43.265Z,101040.78
2023-04-23T19:46:36.484Z,100962.09
2023-04-23T19:51:35.577Z,100997.88
2023-04-23T19:56:28.910Z,100932.53
2023-04-23T20:01:23.860Z,100793.97
2023-04-23T20:06:17.219Z,100979.13
2023-04-23T20:11:10.647Z,101018.63
2023-04-23T20:16:04.210Z,101016.50
2023-04-23T20:21:00.377Z,101012.03
2023-04-23T20:25:53.665Z,101011.00
2023-04-23T20:30:47.297Z,100966.34
2023-04-23T20:35:41.993Z,101004.38
2023-04-23T20:40:36.683Z,101008.19
2023-04-23T20:45:29.899Z,101011.59
2023-04-23T20:50:25.611Z,101009.97
2023-04-23T20:55:19.114Z,100929.09
2023-04-23T21:00:15.016Z,101019.59
2023-04-23T21:05:09.235Z,100988.41
2023-04-23T21:10:02.495Z,101021.53
2023-04-23T21:14:56.507Z,100980.38
2023-04-23T21:19:53.960Z,100982.53
2023-04-23T21:24:47.551Z,101011.56
2023-04-23T21:29:41.440Z,100976.59
2023-04-23T21:34:34.856Z,100913.47
2023-04-23T21:39:31.812Z,101001.81
2023-04-23T21:44:25.244Z,100942.78
2023-04-23T21:49:18.524Z,100884.31
2023-04-23T21:54:17.483Z,101007.06
2023-04-23T21:59:12.225Z,100996.44
2023-04-23T22:04:05.765Z,100997.41
2023-04-23T22:08:59.214Z,100980.25
2023-04-23T22:13:55.942Z,100911.81
2023-04-23T22:18:50.648Z,100946.09
2023-04-23T22:23:43.840Z,100909.16
2023-04-23T22:28:37.046Z,100980.41
2023-04-23T22:33:30.213Z,100978.13
2023-04-23T22:38:27.823Z,100883.44
2023-04-23T22:43:23.264Z,100970.41
2023-04-23T22:48:16.504Z,100951.81
2023-04-23T22:53:09.812Z,100930.72
2023-04-23T22:58:04.411Z,100968.97
2023-04-23T23:02:57.716Z,100934.69
2023-04-23T23:07:52.142Z,100905.94
2023-04-23T23:12:47.701Z,100927.75
2023-04-23T23:17:42.377Z,100969.91
2023-04-23T23:22:35.829Z,100925.69
2023-04-23T23:27:29.035Z,100781.19
2023-04-23T23:32:22.969Z,100966.53
2023-04-23T23:37:17.718Z,100926.41
2023-04-23T23:42:11.397Z,100920.31
2023-04-23T23:47:04.782Z,100901.41
2023-04-23T23:51:58.757Z,100889.84
2023-04-23T23:56:53.329Z,100903.91
